Time;durP1;ratioP1;P1;durP2;ratioP2;P2;SDS_P1;SDS_P2;PMS_P1;PMS_P2;Temp;Humidity;BMP_temperature;BMP_pressure;BME280_temperature;BME280_humidity;BME280_pressure;Samples;Min_cycle;Max_cycle;Signal;HPM_P1;HPM_P2
2022/02/15 00:01:01;;;;;;;;;;;8.30;99.90;;;;;;5027022;28;19905;-91
2022/02/15 00:03:27;;;;;;;;;;;8.40;99.90;;;;;;5026802;28;19905;-92
2022/02/15 00:05:52;;;;;;;;;;;8.30;99.90;;;;;;5026424;28;19963;-91
2022/02/15 00:08:18;;;;;;;;;;;8.30;99.90;;;;;;5027460;28;19928;-91
2022/02/15 00:10:45;;;;;;;;;;;8.30;99.90;;;;;;5027036;28;19905;-91
2022/02/15 00:13:12;;;;;;;;;;;8.30;99.90;;;;;;5026017;28;19912;-91
2022/02/15 00:15:37;;;;;;;;;;;8.30;99.90;;;;;;5026326;28;19905;-91
2022/02/15 00:18:03;;;;;;;;;;;8.30;99.90;;;;;;5023290;28;20094;-91
2022/02/15 00:20:29;;;;;;;;;;;8.30;99.90;;;;;;5025983;28;19940;-90
2022/02/15 00:22:54;;;;;;;;;;;8.30;99.90;;;;;;5044805;28;19905;-91
2022/02/15 00:25:21;;;;;;;;;;;8.30;99.90;;;;;;5026960;28;19906;-91
2022/02/15 00:27:47;;;;;;;;;;;8.20;99.90;;;;;;5026865;28;19909;-91
2022/02/15 00:30:13;;;;;;;;;;;8.20;99.90;;;;;;5026883;28;19948;-91
2022/02/15 00:32:38;;;;;;;;;;;8.20;99.90;;;;;;5022988;28;19909;-91
2022/02/15 00:35:05;;;;;;;;;;;8.20;99.90;;;;;;5026674;28;20208;-91
2022/02/15 00:37:30;;;;;;;;;;;8.20;99.90;;;;;;5026680;28;20130;-91
2022/02/15 00:39:56;;;;;;;;;;;8.20;99.90;;;;;;5026684;28;19936;-91
2022/02/15 00:42:21;;;;;;;;;;;8.20;99.90;;;;;;5026564;28;19911;-90
2022/02/15 00:44:47;;;;;;;;;;;8.20;99.90;;;;;;5044465;28;19952;-91
2022/02/15 00:47:13;;;;;;;;;;;8.20;99.90;;;;;;5040547;28;20165;-92
2022/02/15 00:49:38;;;;;;;;;;;8.20;99.90;;;;;;5026528;28;19906;-91
2022/02/15 00:52:04;;;;;;;;;;;8.20;99.90;;;;;;5044161;28;19944;-91
2022/02/15 00:54:30;;;;;;;;;;;8.10;99.90;;;;;;5044090;28;19905;-91
2022/02/15 00:56:55;;;;;;;;;;;8.10;99.90;;;;;;5023821;28;19917;-91
2022/02/15 00:59:21;;;;;;;;;;;8.10;99.90;;;;;;5026337;28;19921;-91
2022/02/15 01:01:47;;;;;;;;;;;8.10;99.90;;;;;;5026356;28;19905;-91
2022/02/15 01:04:12;;;;;;;;;;;8.10;99.90;;;;;;5025469;28;20097;-91
2022/02/15 01:06:38;;;;;;;;;;;8.20;99.90;;;;;;5026231;28;19905;-91
2022/02/15 01:09:03;;;;;;;;;;;8.10;99.90;;;;;;5025271;28;19905;-92
2022/02/15 01:11:29;;;;;;;;;;;8.10;99.90;;;;;;5023615;28;20304;-91
2022/02/15 01:13:54;;;;;;;;;;;8.10;99.90;;;;;;5034196;28;19909;-89
2022/02/15 01:16:20;;;;;;;;;;;8.10;99.90;;;;;;5017441;28;19909;-91
2022/02/15 01:18:46;;;;;;;;;;;8.10;99.90;;;;;;5016075;28;20184;-90
2022/02/15 01:21:11;;;;;;;;;;;8.10;99.90;;;;;;5016210;28;19963;-90
2022/02/15 01:23:37;;;;;;;;;;;8.10;99.90;;;;;;5033633;28;19910;-92
2022/02/15 01:26:02;;;;;;;;;;;8.10;99.90;;;;;;5016132;28;19992;-92
2022/02/15 01:28:28;;;;;;;;;;;8.10;99.90;;;;;;5016030;28;19970;-91
2022/02/15 01:30:54;;;;;;;;;;;8.10;99.90;;;;;;5016245;28;19909;-91
2022/02/15 01:33:20;;;;;;;;;;;8.10;99.90;;;;;;5015921;28;19909;-91
2022/02/15 01:35:45;;;;;;;;;;;8.10;99.90;;;;;;5016347;28;19964;-90
2022/02/15 01:38:11;;;;;;;;;;;8.10;99.90;;;;;;5016619;28;19910;-92
2022/02/15 01:40:36;;;;;;;;;;;8.10;99.90;;;;;;5016581;28;19917;-91
2022/02/15 01:43:02;;;;;;;;;;;8.10;99.90;;;;;;5016549;28;19909;-92
2022/02/15 01:45:27;;;;;;;;;;;8.10;99.90;;;;;;5015515;28;20362;-90
2022/02/15 01:47:54;;;;;;;;;;;8.10;99.90;;;;;;5016446;28;19983;-92
2022/02/15 01:50:19;;;;;;;;;;;8.10;99.90;;;;;;5016422;28;19987;-92
2022/02/15 01:52:45;;;;;;;;;;;8.10;99.90;;;;;;5016036;28;20394;-91
2022/02/15 01:55:12;;;;;;;;;;;8.10;99.90;;;;;;5016255;28;19913;-91
2022/02/15 01:57:38;;;;;;;;;;;8.10;99.90;;;;;;5015929;28;20387;-92
2022/02/15 02:00:06;;;;;;;;;;;8.10;99.90;;;;;;5015714;28;19928;-92
2022/02/15 02:02:31;;;;;;;;;;;8.10;99.90;;;;;;5015677;28;19909;-92
2022/02/15 02:07:42;;;;;;;;;;;8.10;99.90;;;;;;5026676;28;19963;-91
2022/02/15 02:10:08;;;;;;;;;;;8.10;99.90;;;;;;5015529;28;20358;-91
2022/02/15 02:12:34;;;;;;;;;;;8.10;99.90;;;;;;5015562;28;19916;-92
2022/02/15 02:15:07;;;;;;;;;;;8.10;99.90;;;;;;5015644;28;19938;-91
2022/02/15 02:17:33;;;;;;;;;;;8.10;99.90;;;;;;5002149;28;19913;-90
2022/02/15 02:19:59;;;;;;;;;;;8.10;99.90;;;;;;5034323;28;19924;-91
2022/02/15 02:22:26;;;;;;;;;;;8.10;99.90;;;;;;5015511;28;20377;-92
2022/02/15 02:24:52;;;;;;;;;;;8.00;99.90;;;;;;5015371;28;19956;-90
2022/02/15 02:27:21;;;;;;;;;;;8.00;99.90;;;;;;5015010;28;19909;-91
2022/02/15 02:29:49;;;;;;;;;;;8.00;99.90;;;;;;5015178;28;20000;-91
2022/02/15 02:32:15;;;;;;;;;;;8.00;99.90;;;;;;5014851;28;19985;-91
2022/02/15 02:34:40;;;;;;;;;;;8.00;99.90;;;;;;5014648;28;20357;-91
2022/02/15 02:37:06;;;;;;;;;;;8.00;99.90;;;;;;5032581;28;19923;-90
2022/02/15 02:39:31;;;;;;;;;;;8.00;99.90;;;;;;5034275;28;19920;-91
2022/02/15 02:41:57;;;;;;;;;;;8.00;99.90;;;;;;5016018;28;19916;-91
2022/02/15 02:44:22;;;;;;;;;;;8.00;99.90;;;;;;5015132;28;20387;-91
2022/02/15 02:46:48;;;;;;;;;;;8.00;99.90;;;;;;5014572;28;19909;-90
2022/02/15 02:49:14;;;;;;;;;;;8.00;99.90;;;;;;5014738;28;19909;-90
2022/02/15 02:51:39;;;;;;;;;;;7.90;99.90;;;;;;5014906;28;19962;-91
2022/02/15 02:54:05;;;;;;;;;;;7.90;99.90;;;;;;5014738;28;20297;-91
2022/02/15 02:56:30;;;;;;;;;;;7.90;99.90;;;;;;5032362;28;19961;-92
2022/02/15 02:58:56;;;;;;;;;;;8.00;99.90;;;;;;5019420;28;19978;-91
2022/02/15 03:01:21;;;;;;;;;;;7.90;99.90;;;;;;5018739;28;19909;-89
2022/02/15 03:03:47;;;;;;;;;;;8.00;99.90;;;;;;5036276;28;20324;-91
2022/02/15 03:06:13;;;;;;;;;;;8.00;99.90;;;;;;5018513;28;20273;-90
2022/02/15 03:08:38;;;;;;;;;;;8.00;99.90;;;;;;5018418;28;19947;-91
2022/02/15 03:11:04;;;;;;;;;;;8.00;99.90;;;;;;5035986;28;19936;-91
2022/02/15 03:13:29;;;;;;;;;;;8.00;99.90;;;;;;5018310;28;19956;-89
2022/02/15 03:15:55;;;;;;;;;;;8.10;99.90;;;;;;5036874;28;19910;-90
2022/02/15 03:18:20;;;;;;;;;;;8.10;99.90;;;;;;5012180;28;19917;-89
2022/02/15 03:20:46;;;;;;;;;;;8.10;99.90;;;;;;5038126;28;19909;-90
2022/02/15 03:23:11;;;;;;;;;;;8.10;99.90;;;;;;5023043;28;19909;-90
2022/02/15 03:25:37;;;;;;;;;;;8.10;99.90;;;;;;5023285;28;20435;-90
2022/02/15 03:28:03;;;;;;;;;;;8.10;99.90;;;;;;5022817;28;20664;-90
2022/02/15 03:30:28;;;;;;;;;;;8.10;99.90;;;;;;5026164;28;19905;-90
2022/02/15 03:32:54;;;;;;;;;;;8.10;99.90;;;;;;5031418;28;19956;-91
2022/02/15 03:35:19;;;;;;;;;;;8.10;99.90;;;;;;5031773;28;19905;-91
2022/02/15 03:37:46;;;;;;;;;;;8.00;99.90;;;;;;5056175;28;19905;-90
2022/02/15 03:40:12;;;;;;;;;;;8.10;99.90;;;;;;5056713;28;19913;-90
2022/02/15 03:45:22;;;;;;;;;;;8.10;99.90;;;;;;5053364;28;19955;-89
2022/02/15 03:47:47;;;;;;;;;;;8.10;99.90;;;;;;5029408;28;19909;-90
2022/02/15 03:50:13;;;;;;;;;;;8.10;99.90;;;;;;5035589;28;19920;-91
2022/02/15 03:52:38;;;;;;;;;;;8.10;99.90;;;;;;5053113;28;20016;-91
2022/02/15 03:55:05;;;;;;;;;;;8.00;99.90;;;;;;5035068;28;19936;-91
2022/02/15 03:57:35;;;;;;;;;;;8.00;99.90;;;;;;5032089;28;19944;-90
2022/02/15 04:00:01;;;;;;;;;;;7.90;99.90;;;;;;5051726;28;19917;-90
2022/02/15 04:02:26;;;;;;;;;;;7.90;99.90;;;;;;5049565;28;20393;-90
2022/02/15 04:04:52;;;;;;;;;;;7.90;99.90;;;;;;5048558;28;19936;-90
2022/02/15 04:07:19;;;;;;;;;;;7.90;99.90;;;;;;5032185;28;19909;-89
2022/02/15 04:09:44;;;;;;;;;;;7.90;99.90;;;;;;5031420;28;19909;-90
2022/02/15 04:12:10;;;;;;;;;;;7.90;99.90;;;;;;5031248;28;19928;-90
2022/02/15 04:14:35;;;;;;;;;;;7.90;99.90;;;;;;5021089;28;19909;-90
2022/02/15 04:17:01;;;;;;;;;;;7.80;99.90;;;;;;5038014;28;19905;-90
2022/02/15 04:19:27;;;;;;;;;;;7.80;99.90;;;;;;5043969;28;20170;-90
2022/02/15 04:21:52;;;;;;;;;;;7.80;99.90;;;;;;5026831;28;19940;-89
2022/02/15 04:24:19;;;;;;;;;;;7.80;99.90;;;;;;5026752;28;20101;-90
2022/02/15 04:26:45;;;;;;;;;;;7.80;99.90;;;;;;5021770;28;19909;-89
2022/02/15 04:29:10;;;;;;;;;;;7.80;99.90;;;;;;5043621;28;19911;-89
2022/02/15 04:31:36;;;;;;;;;;;7.80;99.90;;;;;;5026318;28;20292;-89
2022/02/15 04:34:01;;;;;;;;;;;7.80;99.90;;;;;;5044451;28;19976;-90
2022/02/15 04:36:27;;;;;;;;;;;7.80;99.90;;;;;;5041850;28;19912;-89
2022/02/15 04:38:53;;;;;;;;;;;7.70;99.90;;;;;;5016349;28;20152;-90
2022/02/15 04:41:18;;;;;;;;;;;7.70;99.90;;;;;;5016740;28;19916;-90
2022/02/15 04:43:44;;;;;;;;;;;7.60;99.90;;;;;;5016619;28;19910;-90
2022/02/15 04:46:09;;;;;;;;;;;7.70;99.90;;;;;;5034435;28;19909;-89
2022/02/15 04:48:35;;;;;;;;;;;7.80;99.90;;;;;;5035211;28;20035;-89
2022/02/15 04:51:00;;;;;;;;;;;7.80;99.90;;;;;;5034186;28;19936;-91
2022/02/15 04:53:26;;;;;;;;;;;7.90;99.90;;;;;;5036664;28;19905;-91
2022/02/15 04:55:51;;;;;;;;;;;7.90;99.90;;;;;;5025991;28;20083;-90
2022/02/15 04:58:17;;;;;;;;;;;8.10;99.90;;;;;;5043569;28;19913;-91
2022/02/15 05:00:43;;;;;;;;;;;8.10;99.90;;;;;;5026414;28;19905;-90
2022/02/15 05:03:08;;;;;;;;;;;8.10;99.90;;;;;;5043405;28;19905;-91
2022/02/15 05:05:34;;;;;;;;;;;8.10;99.90;;;;;;5025492;28;19968;-90
2022/02/15 05:07:59;;;;;;;;;;;8.10;99.90;;;;;;5040033;28;20231;-91
2022/02/15 05:10:25;;;;;;;;;;;8.20;99.90;;;;;;5033761;28;20538;-90
2022/02/15 05:12:51;;;;;;;;;;;8.30;99.90;;;;;;5017317;28;19913;-90
2022/02/15 05:15:16;;;;;;;;;;;8.30;99.90;;;;;;4998860;28;20378;-90
2022/02/15 05:17:46;;;;;;;;;;;8.30;99.90;;;;;;5034655;28;19979;-91
2022/02/15 05:20:12;;;;;;;;;;;8.30;99.90;;;;;;5014824;28;19996;-90
2022/02/15 05:22:39;;;;;;;;;;;8.30;99.90;;;;;;5023109;28;20106;-91
2022/02/15 05:25:04;;;;;;;;;;;8.40;99.90;;;;;;5018480;28;19910;-91
2022/02/15 05:27:30;;;;;;;;;;;8.30;99.90;;;;;;5021620;28;19905;-90
2022/02/15 05:29:56;;;;;;;;;;;8.40;99.90;;;;;;5043110;28;19916;-90
2022/02/15 05:32:21;;;;;;;;;;;8.40;99.90;;;;;;5042833;28;19943;-91
2022/02/15 05:34:47;;;;;;;;;;;8.50;99.90;;;;;;5025082;28;19976;-91
2022/02/15 05:37:12;;;;;;;;;;;8.50;99.90;;;;;;5025704;28;19921;-91
2022/02/15 05:39:39;;;;;;;;;;;8.50;99.90;;;;;;5025292;28;19913;-91
2022/02/15 05:42:05;;;;;;;;;;;8.50;99.90;;;;;;5036079;28;19913;-91
2022/02/15 05:44:31;;;;;;;;;;;8.50;99.90;;;;;;5014380;28;20432;-91
2022/02/15 05:46:57;;;;;;;;;;;8.60;99.90;;;;;;5009032;28;19948;-91
2022/02/15 05:49:22;;;;;;;;;;;8.70;99.90;;;;;;5027663;28;19915;-90
2022/02/15 05:51:48;;;;;;;;;;;8.60;99.90;;;;;;5031346;28;20539;-91
2022/02/15 05:54:14;;;;;;;;;;;8.70;99.90;;;;;;5006490;28;19991;-91
2022/02/15 05:56:41;;;;;;;;;;;8.70;99.90;;;;;;5011840;28;19990;-91
2022/02/15 05:59:07;;;;;;;;;;;8.70;99.90;;;;;;5031837;28;19928;-91
2022/02/15 06:01:33;;;;;;;;;;;8.70;99.90;;;;;;5015171;28;19913;-92
2022/02/15 06:04:16;;;;;;;;;;;8.80;99.90;;;;;;5015905;28;19905;-93
2022/02/15 06:06:59;;;;;;;;;;;8.80;99.90;;;;;;5037536;28;20369;-92
2022/02/15 06:09:36;;;;;;;;;;;8.60;99.90;;;;;;5015132;28;19916;-93
2022/02/15 06:12:07;;;;;;;;;;;8.50;99.90;;;;;;5014834;28;19917;-92
2022/02/15 06:14:35;;;;;;;;;;;8.40;99.90;;;;;;5014595;28;19916;-94
2022/02/15 06:17:01;;;;;;;;;;;8.30;99.90;;;;;;5016998;28;20383;-92
2022/02/15 06:19:27;;;;;;;;;;;8.20;99.90;;;;;;5015779;28;19913;-92
2022/02/15 06:21:52;;;;;;;;;;;8.20;99.90;;;;;;5014656;28;20381;-92
2022/02/15 06:24:20;;;;;;;;;;;8.20;99.90;;;;;;5014095;28;19909;-92
2022/02/15 06:26:46;;;;;;;;;;;8.20;99.90;;;;;;5017385;28;20319;-95
2022/02/15 06:29:12;;;;;;;;;;;8.20;99.90;;;;;;5016688;28;19925;-93
2022/02/15 06:31:38;;;;;;;;;;;8.10;99.90;;;;;;5015701;28;19909;-91
2022/02/15 06:34:05;;;;;;;;;;;8.10;99.90;;;;;;5014976;28;20445;-95
2022/02/15 06:36:31;;;;;;;;;;;8.10;99.90;;;;;;5015087;28;20273;-94
2022/02/15 06:39:00;;;;;;;;;;;8.10;99.90;;;;;;5014031;28;19917;-93
2022/02/15 06:41:26;;;;;;;;;;;8.10;99.90;;;;;;5014384;28;19916;-93
2022/02/15 06:43:55;;;;;;;;;;;8.10;99.90;;;;;;5013733;28;19909;-89
2022/02/15 06:46:20;;;;;;;;;;;8.10;99.90;;;;;;5007301;28;19905;-92
2022/02/15 06:48:49;;;;;;;;;;;8.00;99.90;;;;;;5014271;28;19913;-92
2022/02/15 06:51:37;;;;;;;;;;;8.10;99.90;;;;;;5038520;28;20430;-93
2022/02/15 06:54:03;;;;;;;;;;;8.00;99.90;;;;;;5024011;28;19913;-93
2022/02/15 06:59:31;;;;;;;;;;;8.10;99.90;;;;;;5023070;28;20354;-93
2022/02/15 10:10:50;;;;;;;;;;;11.10;99.90;;;;;;3641990;22;20352;-94
2022/02/15 10:13:25;;;;;;;;;;;11.20;99.90;;;;;;4973477;28;20017;-95
2022/02/15 10:16:00;;;;;;;;;;;11.20;99.90;;;;;;4973081;28;20426;-95
2022/02/15 10:18:36;;;;;;;;;;;11.30;99.90;;;;;;4975753;28;19910;-95
2022/02/15 10:21:04;;;;;;;;;;;11.30;99.90;;;;;;4974544;28;19918;-94
2022/02/15 10:23:41;;;;;;;;;;;11.30;99.90;;;;;;4975585;28;20083;-95
2022/02/15 10:26:07;;;;;;;;;;;11.20;99.90;;;;;;4982522;28;19910;-94
2022/02/15 10:28:43;;;;;;;;;;;11.30;99.90;;;;;;4981664;28;19910;-95
2022/02/15 10:31:15;;;;;;;;;;;11.30;99.90;;;;;;4972599;28;19910;-95
2022/02/15 10:33:50;;;;;;;;;;;11.30;99.90;;;;;;4990732;28;19909;-96
2022/02/15 10:36:17;;;;;;;;;;;11.30;99.90;;;;;;4969547;28;19910;-94
2022/02/15 10:38:46;;;;;;;;;;;11.40;99.90;;;;;;4975402;28;19928;-96
2022/02/15 10:41:13;;;;;;;;;;;11.40;99.90;;;;;;4969131;28;19910;-95
2022/02/15 10:43:49;;;;;;;;;;;11.30;99.90;;;;;;4976029;28;19964;-94
2022/02/15 10:46:16;;;;;;;;;;;11.30;99.90;;;;;;4976472;28;20177;-95
2022/02/15 10:48:42;;;;;;;;;;;11.50;99.90;;;;;;4975816;28;20379;-94
2022/02/15 10:51:08;;;;;;;;;;;11.50;99.90;;;;;;4972968;28;20343;-93
2022/02/15 10:53:35;;;;;;;;;;;11.50;99.90;;;;;;4974186;28;19910;-94
2022/02/15 10:56:02;;;;;;;;;;;11.60;99.90;;;;;;4972574;28;20367;-94
2022/02/15 10:58:28;;;;;;;;;;;11.70;99.90;;;;;;4972230;28;19910;-94
2022/02/15 11:00:57;;;;;;;;;;;11.70;99.90;;;;;;4990755;28;20362;-94
2022/02/15 11:03:24;;;;;;;;;;;11.70;99.90;;;;;;4975593;28;19945;-92
2022/02/15 11:05:50;;;;;;;;;;;11.70;99.90;;;;;;4962785;28;19956;-95
2022/02/15 11:08:20;;;;;;;;;;;11.70;99.90;;;;;;4988579;28;19910;-93
2022/02/15 11:11:04;;;;;;;;;;;11.80;99.90;;;;;;4968396;28;19909;-93
2022/02/15 11:13:30;;;;;;;;;;;11.70;99.90;;;;;;4971464;28;19922;-94
2022/02/15 11:15:56;;;;;;;;;;;11.80;99.90;;;;;;4974862;28;19914;-94
2022/02/15 11:18:31;;;;;;;;;;;11.80;99.90;;;;;;4980408;28;19925;-92
2022/02/15 11:20:58;;;;;;;;;;;11.70;99.90;;;;;;4979594;28;19936;-94
2022/02/15 11:23:24;;;;;;;;;;;11.70;99.90;;;;;;4979485;28;19917;-96
2022/02/15 11:25:50;;;;;;;;;;;11.70;99.90;;;;;;4979930;28;19910;-93
2022/02/15 11:28:16;;;;;;;;;;;11.80;99.90;;;;;;4980714;28;20059;-93
2022/02/15 11:30:44;;;;;;;;;;;11.80;99.90;;;;;;4982725;28;19949;-92
2022/02/15 11:33:09;;;;;;;;;;;11.90;99.90;;;;;;4977559;28;19937;-94
2022/02/15 11:35:35;;;;;;;;;;;11.90;99.90;;;;;;4995438;28;20012;-93
2022/02/15 11:38:09;;;;;;;;;;;11.90;99.90;;;;;;4976636;28;19932;-95
2022/02/15 11:40:34;;;;;;;;;;;11.90;99.90;;;;;;4977789;28;19918;-93
2022/02/15 11:43:03;;;;;;;;;;;12.00;99.90;;;;;;4976306;28;20334;-94
2022/02/15 11:45:29;;;;;;;;;;;12.10;99.90;;;;;;4978559;28;20253;-94
2022/02/15 11:48:07;;;;;;;;;;;12.10;99.90;;;;;;4975592;28;20322;-93
2022/02/15 11:50:47;;;;;;;;;;;12.00;99.90;;;;;;4995636;28;19909;-93
2022/02/15 11:53:13;;;;;;;;;;;12.20;99.90;;;;;;4980422;28;19949;-93
2022/02/15 11:55:39;;;;;;;;;;;12.30;99.90;;;;;;5000213;28;19909;-92
2022/02/15 11:58:08;;;;;;;;;;;12.20;99.90;;;;;;4974453;28;19914;-92
2022/02/15 12:00:38;;;;;;;;;;;12.30;99.90;;;;;;4990999;28;19918;-93
2022/02/15 12:03:04;;;;;;;;;;;12.30;99.90;;;;;;4977456;28;19910;-92
2022/02/15 12:05:31;;;;;;;;;;;12.30;99.90;;;;;;4995287;28;20394;-92
2022/02/15 12:07:56;;;;;;;;;;;12.40;99.90;;;;;;4976800;28;20000;-92
2022/02/15 12:10:24;;;;;;;;;;;12.50;99.90;;;;;;4976918;28;20405;-92
2022/02/15 12:12:52;;;;;;;;;;;12.50;99.90;;;;;;5005618;28;19928;-92
2022/02/15 12:15:17;;;;;;;;;;;12.50;99.90;;;;;;4999172;28;20264;-92
2022/02/15 12:17:43;;;;;;;;;;;12.50;99.90;;;;;;5005740;28;19920;-92
2022/02/15 12:20:13;;;;;;;;;;;12.50;99.90;;;;;;4996279;28;19918;-92
2022/02/15 12:22:41;;;;;;;;;;;12.50;99.90;;;;;;5013639;28;19925;-92
2022/02/15 12:25:08;;;;;;;;;;;12.60;99.90;;;;;;5002646;28;19925;-92
2022/02/15 12:27:33;;;;;;;;;;;12.60;99.90;;;;;;4995083;28;19917;-92
2022/02/15 12:29:59;;;;;;;;;;;12.60;99.90;;;;;;5013381;28;19909;-92
2022/02/15 12:32:26;;;;;;;;;;;12.50;99.90;;;;;;4994497;28;19914;-92
2022/02/15 12:34:52;;;;;;;;;;;12.70;99.90;;;;;;5007517;28;20003;-92
2022/02/15 12:37:25;;;;;;;;;;;12.70;99.90;;;;;;5014207;28;19960;-92
2022/02/15 12:39:58;;;;;;;;;;;12.60;99.90;;;;;;5000665;28;20290;-91
2022/02/15 12:42:26;;;;;;;;;;;12.50;99.90;;;;;;5008276;28;19920;-92
2022/02/15 12:44:58;;;;;;;;;;;12.40;99.90;;;;;;5011537;28;19913;-92
2022/02/15 12:47:27;;;;;;;;;;;12.30;99.90;;;;;;5013168;28;19910;-92
2022/02/15 12:49:54;;;;;;;;;;;12.10;99.90;;;;;;5011007;28;20376;-91
2022/02/15 12:52:23;;;;;;;;;;;12.00;99.90;;;;;;5011746;28;20278;-92
2022/02/15 12:54:53;;;;;;;;;;;12.10;99.90;;;;;;5011209;28;19910;-91
2022/02/15 12:57:20;;;;;;;;;;;12.30;99.90;;;;;;5011197;28;19909;-92
2022/02/15 12:59:46;;;;;;;;;;;12.40;99.90;;;;;;5007730;28;20343;-91
2022/02/15 13:02:14;;;;;;;;;;;12.60;99.90;;;;;;5010770;28;19956;-91
2022/02/15 13:04:44;;;;;;;;;;;12.50;99.90;;;;;;4993355;28;20395;-91
2022/02/15 13:07:10;;;;;;;;;;;12.50;99.90;;;;;;5010525;28;19910;-91
2022/02/15 13:09:35;;;;;;;;;;;12.70;99.90;;;;;;5007767;28;19909;-91
2022/02/15 13:12:01;;;;;;;;;;;12.70;99.90;;;;;;5011953;28;19922;-91
2022/02/15 13:14:28;;;;;;;;;;;12.80;99.90;;;;;;5010819;28;19914;-92
2022/02/15 13:16:56;;;;;;;;;;;12.90;99.90;;;;;;5010895;28;19922;-91
2022/02/15 13:19:31;;;;;;;;;;;13.00;99.90;;;;;;5007992;28;19922;-92
2022/02/15 13:21:57;;;;;;;;;;;13.00;99.90;;;;;;4992148;28;19918;-92
2022/02/15 13:24:22;;;;;;;;;;;13.00;99.90;;;;;;4993373;28;20004;-91
2022/02/15 13:26:48;;;;;;;;;;;12.90;99.90;;;;;;4991365;28;19918;-90
2022/02/15 13:29:21;;;;;;;;;;;12.90;99.90;;;;;;4991443;28;19914;-91
2022/02/15 13:31:51;;;;;;;;;;;12.90;99.90;;;;;;4996262;28;19909;-91
2022/02/15 13:34:32;;;;;;;;;;;13.10;99.90;;;;;;5010647;28;19910;-91
2022/02/15 13:37:01;;;;;;;;;;;13.00;99.90;;;;;;4994593;28;19936;-91
2022/02/15 13:39:26;;;;;;;;;;;12.90;99.90;;;;;;4991693;28;19972;-91
2022/02/15 13:41:52;;;;;;;;;;;12.80;99.90;;;;;;4994953;28;19910;-91
2022/02/15 13:44:17;;;;;;;;;;;12.80;99.90;;;;;;4997788;28;19910;-91
2022/02/15 13:46:44;;;;;;;;;;;12.60;99.90;;;;;;5008603;28;19948;-91
2022/02/15 13:49:10;;;;;;;;;;;12.50;99.90;;;;;;5011207;28;19910;-90
2022/02/15 13:51:36;;;;;;;;;;;12.50;99.90;;;;;;5011926;28;19910;-91
2022/02/15 13:54:02;;;;;;;;;;;12.40;99.90;;;;;;5009937;28;19915;-91
2022/02/15 13:56:28;;;;;;;;;;;12.50;99.90;;;;;;4990231;28;19953;-91
2022/02/15 13:58:54;;;;;;;;;;;12.70;99.90;;;;;;4998779;28;19953;-90
2022/02/15 14:01:20;;;;;;;;;;;12.80;99.90;;;;;;4995315;28;20053;-91
2022/02/15 14:03:50;;;;;;;;;;;12.90;99.90;;;;;;4995155;28;19913;-90
2022/02/15 14:06:19;;;;;;;;;;;12.90;99.90;;;;;;5010901;28;19936;-91
2022/02/15 14:08:45;;;;;;;;;;;12.90;99.90;;;;;;5006748;28;20212;-90
2022/02/15 14:11:11;;;;;;;;;;;12.70;99.90;;;;;;4993309;28;20016;-90
2022/02/15 14:13:36;;;;;;;;;;;12.50;99.90;;;;;;5010841;28;19960;-91
2022/02/15 14:16:02;;;;;;;;;;;12.40;99.90;;;;;;5002234;28;20360;-90
2022/02/15 14:18:28;;;;;;;;;;;12.30;99.90;;;;;;4975779;28;20315;-91
2022/02/15 14:20:53;;;;;;;;;;;12.20;99.90;;;;;;5011161;28;19970;-91
2022/02/15 14:23:19;;;;;;;;;;;12.00;99.90;;;;;;4993241;28;20005;-91
2022/02/15 14:25:44;;;;;;;;;;;11.90;99.90;;;;;;5010453;28;20302;-91
2022/02/15 14:28:10;;;;;;;;;;;11.60;99.90;;;;;;4977394;28;19917;-91
2022/02/15 14:30:36;;;;;;;;;;;11.40;99.90;;;;;;4975682;28;19949;-94
2022/02/15 14:33:03;;;;;;;;;;;11.10;99.90;;;;;;4984138;28;19909;-94
2022/02/15 14:35:29;;;;;;;;;;;10.90;99.90;;;;;;4993711;28;20015;-95
2022/02/15 14:37:55;;;;;;;;;;;10.80;99.90;;;;;;4985083;28;19952;-92
2022/02/15 14:40:21;;;;;;;;;;;10.70;99.90;;;;;;4971618;28;19925;-94
2022/02/15 14:42:47;;;;;;;;;;;10.70;99.90;;;;;;4991142;28;19910;-93
2022/02/15 14:45:12;;;;;;;;;;;10.70;99.90;;;;;;4986871;28;19909;-95
2022/02/15 14:47:39;;;;;;;;;;;10.70;99.90;;;;;;4972496;28;19917;-93
2022/02/15 14:50:09;;;;;;;;;;;10.70;99.90;;;;;;4990261;28;20215;-94
2022/02/15 14:52:36;;;;;;;;;;;10.70;99.90;;;;;;4981861;28;19909;-94
2022/02/15 14:55:03;;;;;;;;;;;10.70;99.90;;;;;;4984944;28;19955;-94
2022/02/15 14:57:29;;;;;;;;;;;10.70;99.90;;;;;;4997888;28;19913;-94
2022/02/15 14:59:55;;;;;;;;;;;10.70;99.90;;;;;;5002977;28;20378;-96
2022/02/15 15:02:20;;;;;;;;;;;10.70;99.90;;;;;;4978226;28;19917;-93
2022/02/15 15:04:48;;;;;;;;;;;10.80;99.90;;;;;;4993312;28;19956;-96
2022/02/15 15:07:14;;;;;;;;;;;10.90;99.90;;;;;;4976034;28;19910;-91
2022/02/15 15:09:39;;;;;;;;;;;11.00;99.90;;;;;;5012707;28;19921;-92
2022/02/15 15:12:05;;;;;;;;;;;11.00;99.90;;;;;;5000020;28;20037;-92
2022/02/15 15:14:31;;;;;;;;;;;11.10;99.90;;;;;;5016333;28;19963;-92
2022/02/15 15:16:57;;;;;;;;;;;11.10;99.90;;;;;;5018023;28;20298;-91
2022/02/15 15:19:23;;;;;;;;;;;11.10;99.90;;;;;;5004225;28;19926;-92
2022/02/15 15:21:48;;;;;;;;;;;11.20;99.90;;;;;;4996587;28;19910;-92
2022/02/15 15:24:15;;;;;;;;;;;11.20;99.90;;;;;;5016463;28;19913;-91
2022/02/15 15:26:44;;;;;;;;;;;11.20;99.90;;;;;;4999535;28;20486;-91
2022/02/15 15:29:10;;;;;;;;;;;11.30;99.90;;;;;;5017508;28;19916;-91
2022/02/15 15:31:37;;;;;;;;;;;11.30;99.90;;;;;;5022037;28;19914;-91
2022/02/15 15:34:03;;;;;;;;;;;11.40;99.90;;;;;;5010096;28;19917;-91
2022/02/15 15:36:29;;;;;;;;;;;11.30;99.90;;;;;;4984274;28;19898;-91
2022/02/15 15:38:57;;;;;;;;;;;11.30;99.90;;;;;;4988995;28;19985;-91
2022/02/15 15:41:23;;;;;;;;;;;11.30;99.90;;;;;;5018820;28;19913;-91
2022/02/15 15:43:49;;;;;;;;;;;11.20;99.90;;;;;;5020937;28;19909;-92
2022/02/15 15:46:14;;;;;;;;;;;11.20;99.90;;;;;;4981417;28;20338;-91
2022/02/15 15:48:41;;;;;;;;;;;11.20;99.90;;;;;;4983005;28;19941;-91
2022/02/15 15:51:08;;;;;;;;;;;11.20;99.90;;;;;;5000722;28;19910;-90
2022/02/15 15:53:34;;;;;;;;;;;11.20;99.90;;;;;;4983702;28;19910;-91
2022/02/15 15:55:59;;;;;;;;;;;11.20;99.90;;;;;;4994293;28;20397;-90
2022/02/15 15:58:25;;;;;;;;;;;11.20;99.90;;;;;;5000905;28;19937;-91
2022/02/15 16:00:50;;;;;;;;;;;11.20;99.90;;;;;;5000890;28;20391;-90
2022/02/15 16:03:16;;;;;;;;;;;11.20;99.90;;;;;;5007600;28;19916;-91
2022/02/15 16:05:41;;;;;;;;;;;11.20;99.90;;;;;;4990527;28;19915;-90
2022/02/15 16:08:07;;;;;;;;;;;11.20;99.90;;;;;;4993768;28;20350;-91
2022/02/15 16:10:32;;;;;;;;;;;11.20;99.90;;;;;;4974900;28;20257;-91
2022/02/15 16:12:58;;;;;;;;;;;11.20;99.90;;;;;;5011487;28;19948;-91
2022/02/15 16:15:24;;;;;;;;;;;11.20;99.90;;;;;;4994544;28;19965;-90
2022/02/15 16:17:49;;;;;;;;;;;11.20;99.90;;;;;;5009848;28;20378;-91
2022/02/15 16:20:18;;;;;;;;;;;11.20;99.90;;;;;;5010232;28;19976;-91
2022/02/15 16:22:44;;;;;;;;;;;11.20;99.90;;;;;;4993943;28;19910;-91
2022/02/15 16:25:10;;;;;;;;;;;11.20;99.90;;;;;;4994542;28;19933;-92
2022/02/15 16:27:36;;;;;;;;;;;11.10;99.90;;;;;;4993159;28;19979;-91
2022/02/15 16:30:01;;;;;;;;;;;11.10;99.90;;;;;;4994569;28;19918;-91
2022/02/15 16:32:27;;;;;;;;;;;11.10;99.90;;;;;;5000107;28;19910;-91
2022/02/15 16:34:54;;;;;;;;;;;11.20;99.90;;;;;;4992868;28;20279;-92
2022/02/15 16:37:20;;;;;;;;;;;11.10;99.90;;;;;;4993129;28;19910;-91
2022/02/15 16:39:45;;;;;;;;;;;11.10;99.90;;;;;;4992843;28;20017;-91
2022/02/15 16:42:11;;;;;;;;;;;11.10;99.90;;;;;;4993131;28;20385;-91
2022/02/15 16:44:38;;;;;;;;;;;11.10;99.90;;;;;;4994081;28;19917;-91
2022/02/15 16:47:07;;;;;;;;;;;11.10;99.90;;;;;;5007000;28;20450;-91
2022/02/15 16:49:33;;;;;;;;;;;11.10;99.90;;;;;;5001897;28;19910;-91
2022/02/15 16:51:58;;;;;;;;;;;11.10;99.90;;;;;;4993535;28;20259;-91
2022/02/15 16:54:24;;;;;;;;;;;11.00;99.90;;;;;;4994116;28;19916;-91
2022/02/15 16:56:50;;;;;;;;;;;11.00;99.90;;;;;;5011157;28;20382;-91
2022/02/15 16:59:16;;;;;;;;;;;11.00;99.90;;;;;;5011032;28;20386;-91
2022/02/15 17:01:42;;;;;;;;;;;11.00;99.90;;;;;;5001894;28;19910;-90
2022/02/15 17:04:07;;;;;;;;;;;10.90;99.90;;;;;;4994230;28;19956;-91
2022/02/15 17:06:33;;;;;;;;;;;10.90;99.90;;;;;;5004349;28;20355;-92
2022/02/15 17:09:00;;;;;;;;;;;10.90;99.90;;;;;;5010933;28;19959;-91
2022/02/15 17:11:26;;;;;;;;;;;10.90;99.90;;;;;;5010937;28;19964;-90
2022/02/15 17:13:53;;;;;;;;;;;10.80;99.90;;;;;;4993936;28;19921;-91
2022/02/15 17:16:19;;;;;;;;;;;10.90;99.90;;;;;;5005708;28;19910;-91
2022/02/15 17:19:03;;;;;;;;;;;10.80;99.90;;;;;;4993153;28;19914;-91
2022/02/15 17:21:29;;;;;;;;;;;10.80;99.90;;;;;;4986162;28;19989;-91
2022/02/15 17:23:54;;;;;;;;;;;10.80;99.90;;;;;;4993188;28;20020;-91
2022/02/15 17:26:20;;;;;;;;;;;10.70;99.90;;;;;;5003806;28;19917;-92
2022/02/15 17:28:45;;;;;;;;;;;10.80;99.90;;;;;;4996031;28;20458;-92
2022/02/15 17:31:11;;;;;;;;;;;10.80;99.90;;;;;;5008341;28;19972;-91
2022/02/15 17:33:37;;;;;;;;;;;10.80;99.90;;;;;;5010011;28;20405;-92
2022/02/15 17:36:03;;;;;;;;;;;10.80;99.90;;;;;;5013402;28;20023;-91
2022/02/15 17:38:31;;;;;;;;;;;10.80;99.90;;;;;;5012471;28;19933;-94